Time;durP1;ratioP1;P1;durP2;ratioP2;P2;SDS_P1;SDS_P2;PMS_P1;PMS_P2;Temp;Humidity;BMP_temperature;BMP_pressure;BME280_temperature;BME280_humidity;BME280_pressure;Samples;Min_cycle;Max_cycle;Signal;HPM_P1;HPM_P2
2021/06/05 00:01:59;;;;;;;74.15;49.10;;;16.90;99.90;;;;;;5016772;28;20531;-84
2021/06/05 00:04:34;;;;;;;74.90;49.03;;;16.90;99.90;;;;;;5025667;28;20116;-85
2021/06/05 00:07:01;;;;;;;82.93;51.17;;;16.90;99.90;;;;;;4978291;28;20073;-84
2021/06/05 00:09:26;;;;;;;74.32;48.58;;;17.00;99.90;;;;;;5027549;28;20088;-84
2021/06/05 00:11:52;;;;;;;69.35;48.13;;;16.90;99.90;;;;;;5010470;28;20095;-84
2021/06/05 00:14:18;;;;;;;72.93;48.92;;;16.90;99.90;;;;;;5026935;28;20337;-84
2021/06/05 00:16:49;;;;;;;66.68;47.45;;;17.00;99.90;;;;;;5027612;28;20458;-84
2021/06/05 00:19:17;;;;;;;68.75;46.97;;;17.00;99.90;;;;;;5026797;28;20174;-84
2021/06/05 00:21:44;;;;;;;68.13;46.58;;;17.20;99.90;;;;;;5023986;28;20047;-84
2021/06/05 00:24:10;;;;;;;72.85;48.72;;;17.30;99.90;;;;;;5024314;28;20037;-85
2021/06/05 00:26:37;;;;;;;73.90;50.42;;;17.10;99.90;;;;;;5023417;28;20407;-84
2021/06/05 00:29:05;;;;;;;75.05;49.70;;;17.30;99.90;;;;;;5026711;28;20037;-84
2021/06/05 00:31:31;;;;;;;76.50;49.35;;;17.20;99.90;;;;;;5013886;28;20663;-84
2021/06/05 00:33:57;;;;;;;66.18;44.60;;;16.90;99.90;;;;;;5025193;28;20059;-84
2021/06/05 00:36:24;;;;;;;64.72;45.92;;;16.90;99.90;;;;;;5009131;28;20063;-84
2021/06/05 00:38:50;;;;;;;64.70;44.85;;;16.80;99.90;;;;;;5029454;28;20029;-84
2021/06/05 00:41:17;;;;;;;67.25;45.53;;;16.90;99.90;;;;;;5033185;28;20044;-85
2021/06/05 00:43:49;;;;;;;71.75;46.40;;;16.70;99.90;;;;;;5013231;28;20132;-86
2021/06/05 00:46:17;;;;;;;67.80;46.05;;;16.90;99.90;;;;;;5029386;28;20132;-84
2021/06/05 00:48:42;;;;;;;64.75;43.33;;;16.30;99.90;;;;;;5012610;28;20101;-84
2021/06/05 00:51:09;;;;;;;63.60;43.50;;;16.90;99.90;;;;;;5026409;28;20119;-84
2021/06/05 00:53:35;;;;;;;71.90;44.25;;;16.60;99.90;;;;;;5028328;28;20041;-84
2021/06/05 00:56:03;;;;;;;68.80;42.55;;;16.50;99.90;;;;;;5025786;28;20033;-84
2021/06/05 00:58:30;;;;;;;71.72;43.88;;;16.50;99.90;;;;;;5011931;28;20041;-83
2021/06/05 01:01:00;;;;;;;75.95;45.15;;;16.60;99.90;;;;;;5025440;28;20033;-84
2021/06/05 01:03:26;;;;;;;66.07;42.17;;;16.30;99.90;;;;;;5039429;28;20037;-84
2021/06/05 01:05:56;;;;;;;67.28;41.78;;;16.30;99.90;;;;;;5024219;28;20087;-84
2021/06/05 01:08:46;;;;;;;70.80;42.45;;;17.00;99.90;;;;;;4989861;28;20111;-84
2021/06/05 01:11:36;;;;;;;83.07;44.15;;;16.10;99.90;;;;;;5010054;28;20146;-84
2021/06/05 01:14:28;;;;;;;65.95;40.58;;;16.30;99.90;;;;;;5009671;28;20042;-84
2021/06/05 01:17:07;;;;;;;62.88;39.15;;;16.30;99.90;;;;;;5024927;28;20068;-84
2021/06/05 01:19:45;;;;;;;59.67;37.40;;;16.90;99.90;;;;;;5025065;28;20384;-84
2021/06/05 01:22:50;;;;;;;67.32;39.65;;;16.30;99.90;;;;;;5045123;28;20530;-85
2021/06/05 01:25:37;;;;;;;62.92;38.83;;;16.30;99.90;;;;;;5026126;28;20046;-85
2021/06/05 01:28:09;;;;;;;65.25;39.58;;;16.20;99.90;;;;;;5008500;28;20038;-84
2021/06/05 01:30:48;;;;;;;71.22;39.85;;;16.30;99.90;;;;;;5012311;28;20034;-85
2021/06/05 01:33:17;;;;;;;69.68;40.92;;;16.70;99.90;;;;;;5024863;28;20037;-85
2021/06/05 01:35:44;;;;;;;67.47;40.72;;;16.40;99.90;;;;;;5021643;28;20038;-84
2021/06/05 01:38:12;;;;;;;66.70;38.72;;;16.30;99.90;;;;;;5026957;28;20040;-85
2021/06/05 01:40:39;;;;;;;63.25;39.17;;;16.10;99.90;;;;;;5009811;28;20033;-85
2021/06/05 01:43:06;;;;;;;59.80;38.17;;;16.10;99.90;;;;;;5024322;28;20683;-84
2021/06/05 01:45:37;;;;;;;60.05;38.10;;;16.10;99.90;;;;;;5021453;28;20041;-85
2021/06/05 01:48:07;;;;;;;62.13;38.97;;;16.20;99.90;;;;;;5025641;28;20114;-84
2021/06/05 01:50:36;;;;;;;75.45;43.67;;;16.20;99.90;;;;;;5007311;28;20118;-84
2021/06/05 01:53:06;;;;;;;66.68;40.55;;;16.20;99.90;;;;;;5006940;28;20094;-84
2021/06/05 01:55:37;;;;;;;68.18;39.95;;;16.20;99.90;;;;;;5005396;28;20045;-85
2021/06/05 01:58:12;;;;;;;62.10;38.47;;;16.30;99.90;;;;;;5020094;28;20442;-84
2021/06/05 02:00:42;;;;;;;54.22;37.58;;;16.50;99.90;;;;;;5027020;28;20033;-84
2021/06/05 02:03:09;;;;;;;56.38;37.08;;;16.30;99.90;;;;;;5021446;28;20978;-84
2021/06/05 02:05:36;;;;;;;54.75;36.35;;;16.30;99.90;;;;;;5008241;28;20052;-83
2021/06/05 02:08:02;;;;;;;54.53;36.33;;;16.50;99.90;;;;;;5025000;28;21039;-84
2021/06/05 02:10:31;;;;;;;54.67;37.55;;;16.40;99.90;;;;;;5012863;28;20041;-84
2021/06/05 02:12:57;;;;;;;55.90;38.08;;;16.40;99.90;;;;;;5043277;28;21014;-84
2021/06/05 02:15:43;;;;;;;57.47;38.45;;;16.40;99.90;;;;;;5010933;28;20034;-84
2021/06/05 02:18:14;;;;;;;51.10;35.88;;;16.30;99.90;;;;;;5011058;28;20063;-84
2021/06/05 02:20:58;;;;;;;58.05;38.50;;;16.30;99.90;;;;;;5025781;28;20037;-84
2021/06/05 02:23:31;;;;;;;57.15;38.30;;;16.30;99.90;;;;;;5022752;28;20073;-84
2021/06/05 02:26:00;;;;;;;60.78;39.25;;;16.50;99.90;;;;;;5009447;28;20040;-84
2021/06/05 02:28:28;;;;;;;55.03;37.63;;;16.30;99.90;;;;;;5009106;28;20088;-85
2021/06/05 02:30:55;;;;;;;55.92;37.10;;;16.00;99.90;;;;;;5026440;28;20045;-85
2021/06/05 02:33:22;;;;;;;50.95;35.17;;;16.20;99.90;;;;;;5028007;28;20037;-83
2021/06/05 02:35:48;;;;;;;54.97;35.90;;;16.10;99.90;;;;;;5027996;28;20041;-84
2021/06/05 02:38:16;;;;;;;49.05;35.33;;;16.50;99.90;;;;;;5008361;28;20034;-83
2021/06/05 02:40:43;;;;;;;52.03;36.95;;;16.20;99.90;;;;;;5027808;28;20046;-83
2021/06/05 02:43:17;;;;;;;43.67;34.75;;;16.50;99.90;;;;;;5026826;28;20037;-84
2021/06/05 02:46:14;;;;;;;48.38;34.80;;;16.30;99.90;;;;;;5027740;28;20064;-83
2021/06/05 02:48:43;;;;;;;45.25;34.67;;;16.30;99.90;;;;;;5028264;28;20037;-84
2021/06/05 02:51:09;;;;;;;45.03;33.85;;;16.30;99.90;;;;;;5011416;28;20671;-84
2021/06/05 02:53:34;;;;;;;46.65;34.53;;;16.40;99.90;;;;;;5030226;28;20068;-83
2021/06/05 02:56:00;;;;;;;41.42;33.40;;;16.40;99.90;;;;;;5027965;28;20044;-83
2021/06/05 02:58:26;;;;;;;46.08;34.88;;;16.40;99.90;;;;;;5027689;28;20033;-84
2021/06/05 03:00:52;;;;;;;44.38;33.00;;;16.40;99.90;;;;;;5031806;28;20081;-84
2021/06/05 03:03:21;;;;;;;54.30;38.63;;;16.40;99.90;;;;;;5031224;28;20041;-85
2021/06/05 03:05:48;;;;;;;50.78;35.38;;;16.80;99.90;;;;;;5031322;28;20120;-84
2021/06/05 03:08:21;;;;;;;48.42;33.65;;;16.40;99.90;;;;;;5025813;28;20034;-83
2021/06/05 03:10:47;;;;;;;43.83;32.53;;;16.40;99.90;;;;;;5028196;28;20042;-84
2021/06/05 03:13:13;;;;;;;42.65;32.17;;;16.30;99.90;;;;;;5027342;28;20033;-84
2021/06/05 03:15:40;;;;;;;43.70;32.95;;;16.40;99.90;;;;;;5026231;28;20057;-83
2021/06/05 03:18:06;;;;;;;43.72;31.55;;;16.40;99.90;;;;;;5025647;28;20033;-84
2021/06/05 03:20:38;;;;;;;42.38;31.33;;;16.50;99.90;;;;;;5027476;28;20049;-84
2021/06/05 03:23:06;;;;;;;39.72;30.42;;;16.30;99.90;;;;;;5026898;28;20053;-84
2021/06/05 03:25:32;;;;;;;46.75;32.22;;;16.30;99.90;;;;;;5025369;28;20383;-84
2021/06/05 03:27:58;;;;;;;39.72;30.52;;;16.30;99.90;;;;;;5012401;28;20500;-83
2021/06/05 03:30:26;;;;;;;37.90;29.60;;;16.30;99.90;;;;;;5027834;28;20068;-84
2021/06/05 03:32:52;;;;;;;33.67;27.52;;;16.40;99.90;;;;;;5030910;28;20033;-84
2021/06/05 03:35:18;;;;;;;34.22;26.75;;;16.20;99.90;;;;;;5016978;28;20071;-84
2021/06/05 03:37:44;;;;;;;34.53;27.35;;;16.20;99.90;;;;;;5029485;28;20034;-84
2021/06/05 03:40:14;;;;;;;42.97;30.63;;;16.20;99.90;;;;;;5026823;28;20037;-84
2021/06/05 03:42:40;;;;;;;36.92;28.55;;;16.20;99.90;;;;;;5014509;28;20550;-84
2021/06/05 03:45:07;;;;;;;38.05;28.27;;;16.20;99.90;;;;;;5024209;28;20037;-84
2021/06/05 03:47:33;;;;;;;42.97;30.92;;;16.20;99.90;;;;;;5046996;28;21663;-84
2021/06/05 03:50:00;;;;;;;42.63;29.55;;;16.10;99.90;;;;;;5012969;28;20065;-85
2021/06/05 03:52:32;;;;;;;41.33;29.92;;;16.00;99.90;;;;;;4994976;28;20139;-83
2021/06/05 03:54:58;;;;;;;42.40;30.02;;;16.00;99.90;;;;;;4993051;28;20511;-84
2021/06/05 03:57:26;;;;;;;42.42;28.98;;;16.60;99.90;;;;;;5010737;28;20030;-84
2021/06/05 03:59:54;;;;;;;37.38;27.67;;;16.00;99.90;;;;;;5011062;28;20033;-84
2021/06/05 04:02:23;;;;;;;36.88;27.17;;;16.00;99.90;;;;;;5025404;28;20453;-84
2021/06/05 04:04:50;;;;;;;42.45;28.48;;;16.00;99.90;;;;;;5026545;28;20045;-84
2021/06/05 04:07:17;;;;;;;35.50;25.10;;;16.00;99.90;;;;;;5027204;28;20416;-86
2021/06/05 04:09:44;;;;;;;32.20;25.55;;;15.90;99.90;;;;;;5011891;28;20120;-84
2021/06/05 04:12:12;;;;;;;41.92;27.10;;;15.90;99.90;;;;;;5023310;28;20037;-84
2021/06/05 04:14:40;;;;;;;45.78;28.70;;;15.90;99.90;;;;;;5026936;28;20040;-84
2021/06/05 04:17:08;;;;;;;47.17;29.83;;;16.00;99.90;;;;;;5008994;28;20447;-84
2021/06/05 04:19:34;;;;;;;36.97;26.67;;;16.00;99.90;;;;;;5025542;28;20034;-84
2021/06/05 04:22:00;;;;;;;37.58;25.50;;;15.90;99.90;;;;;;5027360;28;20044;-84
2021/06/05 04:24:51;;;;;;;61.38;30.30;;;15.90;99.90;;;;;;5011538;28;20034;-85
2021/06/05 04:27:17;;;;;;;46.47;28.88;;;15.90;99.90;;;;;;5024518;28;20393;-85
2021/06/05 04:34:09;;;;;;;32.83;20.08;;;15.90;99.90;;;;;;5020758;28;20095;-88
2021/06/05 04:44:47;;;;;;;28.02;14.80;;;15.90;99.90;;;;;;4986005;28;20082;-86
2021/06/05 04:47:43;;;;;;;27.33;14.18;;;15.80;99.90;;;;;;4981097;28;20157;-86
2021/06/05 04:50:11;;;;;;;12.93;11.32;;;16.00;99.90;;;;;;4986308;28;20046;-87
2021/06/05 04:52:37;;;;;;;10.98;9.30;;;15.80;99.90;;;;;;5026112;28;20065;-86
2021/06/05 04:55:07;;;;;;;10.63;9.05;;;15.80;99.90;;;;;;5028207;28;20064;-86
2021/06/05 04:57:33;;;;;;;10.82;9.73;;;15.80;99.90;;;;;;5022116;28;20049;-86
2021/06/05 04:59:58;;;;;;;10.40;9.15;;;15.80;99.90;;;;;;5010540;28;20033;-84
2021/06/05 05:02:24;;;;;;;10.57;9.15;;;15.80;99.90;;;;;;5029658;28;20034;-87
2021/06/05 05:04:50;;;;;;;12.32;10.45;;;15.90;99.90;;;;;;5027425;28;20040;-87
2021/06/05 05:07:17;;;;;;;14.43;9.80;;;15.80;99.90;;;;;;5027480;28;20042;-86
2021/06/05 05:09:42;;;;;;;20.08;12.32;;;15.70;99.90;;;;;;5011030;28;20112;-85
2021/06/05 05:12:09;;;;;;;16.00;10.07;;;15.70;99.90;;;;;;5013932;28;20191;-86
2021/06/05 05:14:37;;;;;;;12.15;8.48;;;15.70;99.90;;;;;;5042185;28;21899;-86
2021/06/05 05:17:03;;;;;;;6.93;6.22;;;15.60;99.90;;;;;;5024806;28;20581;-86
2021/06/05 05:19:30;;;;;;;10.63;6.93;;;15.70;99.90;;;;;;5028049;28;20060;-86
2021/06/05 05:21:56;;;;;;;12.93;5.88;;;15.60;99.90;;;;;;5027241;28;20045;-87
2021/06/05 05:24:22;;;;;;;7.63;5.78;;;15.60;99.90;;;;;;5031422;28;20088;-86
2021/06/05 05:26:48;;;;;;;6.80;5.15;;;15.60;99.90;;;;;;5026509;28;20117;-86
2021/06/05 05:29:14;;;;;;;9.18;6.18;;;15.60;99.90;;;;;;5028105;28;20059;-86
2021/06/05 05:31:40;;;;;;;13.75;6.70;;;15.60;99.90;;;;;;5028567;28;20038;-86
2021/06/05 05:34:06;;;;;;;13.95;5.15;;;15.60;99.90;;;;;;5007038;28;20045;-87
2021/06/05 05:36:34;;;;;;;8.85;4.38;;;15.60;99.90;;;;;;5011738;28;20127;-86
2021/06/05 05:39:04;;;;;;;4.20;3.22;;;15.50;99.90;;;;;;5026463;28;20037;-87
2021/06/05 05:41:30;;;;;;;3.40;3.10;;;15.50;99.90;;;;;;5044104;28;20049;-86
2021/06/05 05:43:56;;;;;;;6.05;3.58;;;16.00;99.90;;;;;;5027629;28;20064;-87
2021/06/05 05:46:22;;;;;;;3.53;3.00;;;15.40;99.90;;;;;;5026592;28;20088;-86
2021/06/05 05:48:48;;;;;;;3.78;3.08;;;15.50;99.90;;;;;;5026199;28;20048;-87
2021/06/05 06:17:31;;;;;;;1.98;1.75;;;15.60;99.90;;;;;;5032078;28;20032;-87
2021/06/05 06:39:18;;;;;;;2.70;1.83;;;16.00;99.90;;;;;;5010208;28;20065;-84
2021/06/05 06:46:55;;;;;;;2.50;2.03;;;16.10;99.90;;;;;;4948548;28;20524;-88
2021/06/05 07:01:32;;;;;;;3.30;2.70;;;16.50;99.90;;;;;;4975023;28;20086;-87
2021/06/05 07:03:59;;;;;;;4.10;3.13;;;16.40;99.90;;;;;;4967671;28;20513;-90
2021/06/05 07:06:26;;;;;;;2.80;2.60;;;16.40;99.90;;;;;;5007658;28;20050;-88
2021/06/05 07:08:54;;;;;;;2.92;2.72;;;16.40;99.90;;;;;;5014823;28;20508;-87
2021/06/05 07:11:28;;;;;;;3.47;3.17;;;16.50;99.90;;;;;;5032114;28;20041;-89
2021/06/05 07:13:57;;;;;;;3.78;3.47;;;16.40;99.90;;;;;;5014782;28;20707;-88
2021/06/05 07:16:23;;;;;;;4.00;3.60;;;16.40;99.90;;;;;;5033111;28;20818;-90
2021/06/05 07:18:50;;;;;;;4.25;3.83;;;16.40;99.90;;;;;;5013770;28;20057;-88
2021/06/05 07:21:16;;;;;;;5.35;4.07;;;16.40;99.90;;;;;;5012509;28;20068;-88
2021/06/05 07:23:44;;;;;;;6.03;4.10;;;17.00;99.90;;;;;;5025018;28;20411;-88
2021/06/05 07:26:16;;;;;;;5.53;4.85;;;16.60;99.90;;;;;;5010421;28;20160;-88
2021/06/05 07:29:48;;;;;;;6.40;4.40;;;16.60;99.90;;;;;;5043517;28;20497;-87
2021/06/05 07:55:15;;;;;;;7.82;6.97;;;17.00;99.90;;;;;;4946138;28;20123;-87
2021/06/05 07:57:41;;;;;;;7.65;6.93;;;17.20;99.90;;;;;;4946265;28;20047;-89
2021/06/05 08:00:19;;;;;;;7.38;6.78;;;17.40;99.90;;;;;;4959165;28;20711;-87
2021/06/05 09:23:05;;;;;;;15.25;14.05;;;21.20;99.60;;;;;;4887472;29;20063;-87
2021/06/05 09:30:32;;;;;;;15.55;14.35;;;21.20;99.90;;;;;;4798512;29;20041;-88
2021/06/05 09:45:01;;;;;;;16.27;14.88;;;21.20;99.90;;;;;;4829634;29;20249;-86
2021/06/05 09:55:53;;;;;;;17.52;15.82;;;21.10;99.90;;;;;;4763020;29;20058;-87
2021/06/05 10:03:39;;;;;;;17.88;16.48;;;21.10;99.90;;;;;;4723158;30;20105;-87
2021/06/05 10:10:50;;;;;;;18.80;17.20;;;20.90;99.90;;;;;;4789423;29;20052;-87
2021/06/05 10:13:24;;;;;;;19.13;17.42;;;20.80;99.90;;;;;;4949428;28;20429;-87
2021/06/05 10:15:55;;;;;;;18.63;17.02;;;20.80;99.90;;;;;;5048926;28;20529;-87
2021/06/05 10:18:25;;;;;;;21.13;19.33;;;20.70;99.90;;;;;;5031564;28;20826;-88
2021/06/05 10:21:04;;;;;;;21.70;19.80;;;20.70;99.90;;;;;;5015653;28;20037;-87
2021/06/05 10:23:39;;;;;;;20.27;18.55;;;20.60;99.90;;;;;;5013145;28;20045;-84
2021/06/05 10:26:16;;;;;;;21.80;19.90;;;20.50;99.90;;;;;;5028777;28;20467;-83
2021/06/05 10:28:45;;;;;;;21.67;19.85;;;20.50;99.90;;;;;;5033695;28;20487;-87
2021/06/05 10:31:17;;;;;;;21.38;19.40;;;20.40;99.90;;;;;;5015503;28;20035;-88
2021/06/05 10:33:43;;;;;;;20.45;18.55;;;20.50;99.90;;;;;;5032757;28;20041;-85
2021/06/05 10:36:25;;;;;;;21.10;19.13;;;20.50;99.90;;;;;;5032785;28;20080;-86
2021/06/05 10:39:01;;;;;;;19.73;18.00;;;20.50;99.90;;;;;;5009637;28;20105;-89
2021/06/05 10:41:30;;;;;;;24.23;21.88;;;20.50;99.90;;;;;;5047178;28;20756;-88
2021/06/05 10:43:57;;;;;;;21.52;19.73;;;20.50;99.90;;;;;;5034429;28;20064;-87
2021/06/05 10:46:28;;;;;;;20.63;19.00;;;20.50;99.90;;;;;;5013788;28;20463;-88
2021/06/05 10:49:24;;;;;;;21.88;19.88;;;20.40;99.90;;;;;;5024617;28;20133;-87
2021/06/05 10:52:02;;;;;;;22.13;20.17;;;20.40;99.90;;;;;;5007636;28;20045;-88
2021/06/05 10:54:30;;;;;;;21.83;19.77;;;20.30;99.90;;;;;;5015751;28;20041;-87
2021/06/05 10:57:28;;;;;;;21.38;19.63;;;20.30;99.90;;;;;;5008606;28;20045;-86
2021/06/05 10:59:56;;;;;;;22.05;20.25;;;20.20;99.90;;;;;;4991780;28;20050;-87
2021/06/05 11:02:42;;;;;;;20.65;18.83;;;20.20;99.90;;;;;;4999946;28;20088;-87
2021/06/05 11:05:17;;;;;;;20.60;18.73;;;20.20;99.90;;;;;;5030321;28;20056;-87
2021/06/05 11:07:44;;;;;;;20.98;19.15;;;20.10;99.90;;;;;;5027760;28;20715;-87
2021/06/05 11:10:11;;;;;;;19.98;18.48;;;20.10;99.90;;;;;;5048525;28;20452;-86
2021/06/05 11:12:36;;;;;;;20.80;19.13;;;20.00;99.90;;;;;;5029186;28;20041;-88
2021/06/05 11:15:04;;;;;;;20.05;18.45;;;20.50;99.90;;;;;;5012520;28;20052;-86
2021/06/05 11:18:12;;;;;;;19.80;18.30;;;20.10;99.90;;;;;;5046066;28;20045;-88
2021/06/05 11:20:39;;;;;;;19.75;18.15;;;20.10;99.90;;;;;;5009326;28;20046;-86
2021/06/05 11:23:26;;;;;;;21.55;19.80;;;20.10;99.90;;;;;;5026082;28;20136;-85
2021/06/05 11:25:56;;;;;;;20.42;18.73;;;20.30;99.90;;;;;;5032090;28;20669;-85
2021/06/05 11:28:27;;;;;;;22.13;20.15;;;20.00;99.90;;;;;;5031537;28;20033;-84
2021/06/05 11:30:54;;;;;;;21.85;20.10;;;20.10;99.90;;;;;;5041825;28;20120;-85
2021/06/05 11:33:44;;;;;;;19.05;16.80;;;20.50;99.90;;;;;;5030838;28;20029;-87
2021/06/05 11:36:34;;;;;;;17.13;15.00;;;20.00;99.90;;;;;;5017016;28;20038;-86
2021/06/05 11:39:00;;;;;;;16.63;15.20;;;19.90;99.90;;;;;;5023375;28;20120;-85
2021/06/05 11:41:48;;;;;;;16.95;15.25;;;19.80;99.90;;;;;;5029116;28;20065;-85
2021/06/05 11:44:30;;;;;;;17.80;16.00;;;19.70;99.90;;;;;;5033239;28;20034;-85
2021/06/05 11:47:02;;;;;;;18.67;16.38;;;19.60;99.90;;;;;;5024772;28;20602;-85
2021/06/05 11:49:48;;;;;;;19.15;17.35;;;19.90;99.90;;;;;;5009783;28;20068;-86
2021/06/05 11:52:22;;;;;;;17.98;16.33;;;19.40;99.90;;;;;;5027615;28;20068;-88
2021/06/05 11:54:49;;;;;;;19.17;17.40;;;19.60;99.90;;;;;;5007470;28;20496;-88
2021/06/05 11:57:43;;;;;;;18.95;17.02;;;19.50;99.90;;;;;;5030959;28;20291;-87
2021/06/05 12:00:17;;;;;;;19.10;17.27;;;19.30;99.90;;;;;;5007192;28;20083;-87
2021/06/05 12:02:53;;;;;;;21.17;19.05;;;19.30;99.90;;;;;;5021574;28;20518;-88
2021/06/05 12:05:26;;;;;;;21.08;18.98;;;19.20;99.90;;;;;;5032423;28;20895;-88
2021/06/05 12:07:52;;;;;;;19.48;17.58;;;19.20;99.90;;;;;;5034489;28;20041;-86
2021/06/05 12:10:41;;;;;;;21.77;19.60;;;19.30;99.90;;;;;;5031136;28;20071;-87
2021/06/05 12:13:33;;;;;;;22.67;20.42;;;19.20;99.90;;;;;;5029700;28;20037;-88
2021/06/05 12:16:15;;;;;;;20.95;18.95;;;19.20;99.90;;;;;;5025510;28;20041;-86
2021/06/05 12:18:47;;;;;;;20.23;17.98;;;19.20;99.90;;;;;;5025000;28;20198;-86
2021/06/05 12:21:33;;;;;;;18.85;16.88;;;19.50;99.90;;;;;;5006518;28;20041;-88
2021/06/05 12:24:23;;;;;;;18.33;16.65;;;19.30;99.90;;;;;;5025357;28;20049;-86
2021/06/05 12:27:02;;;;;;;17.55;15.77;;;19.30;99.90;;;;;;5029777;28;20037;-87
2021/06/05 12:29:34;;;;;;;12.43;11.38;;;19.40;99.90;;;;;;5026714;28;20517;-86
2021/06/05 12:32:13;;;;;;;11.65;10.57;;;19.50;99.90;;;;;;5022077;28;20049;-86
2021/06/05 12:34:39;;;;;;;9.60;8.80;;;19.50;99.90;;;;;;5025725;28;20108;-87
2021/06/05 12:37:14;;;;;;;10.55;9.65;;;19.70;99.90;;;;;;5027115;28;20091;-87
2021/06/05 12:39:48;;;;;;;9.48;8.75;;;19.70;99.90;;;;;;5025473;28;20082;-87
2021/06/05 12:42:37;;;;;;;9.70;8.85;;;19.80;99.90;;;;;;5005741;28;20463;-85
2021/06/05 12:45:26;;;;;;;11.52;10.55;;;19.90;99.90;;;;;;5019272;28;20735;-85
2021/06/05 12:47:56;;;;;;;10.80;9.80;;;19.90;99.90;;;;;;5019409;28;20037;-85
2021/06/05 12:50:32;;;;;;;11.32;10.32;;;19.80;99.90;;;;;;5015826;28;20046;-86
2021/06/05 12:53:00;;;;;;;13.05;11.95;;;19.80;99.90;;;;;;5022506;28;20042;-85
2021/06/05 12:55:29;;;;;;;13.02;11.82;;;20.10;99.90;;;;;;5021812;28;20102;-86
2021/06/05 12:58:29;;;;;;;14.75;13.35;;;19.80;99.90;;;;;;5027904;28;20041;-87
2021/06/05 13:00:57;;;;;;;16.33;14.63;;;19.80;99.90;;;;;;5006737;28;20403;-86
2021/06/05 13:03:38;;;;;;;15.80;14.40;;;19.70;99.90;;;;;;5030120;28;20045;-86
2021/06/05 13:06:18;;;;;;;14.82;13.55;;;19.70;99.90;;;;;;5027621;28;20047;-87
2021/06/05 13:08:47;;;;;;;14.75;13.40;;;19.80;99.90;;;;;;5025328;28;20143;-86
2021/06/05 13:11:41;;;;;;;17.08;15.27;;;19.80;99.90;;;;;;5022237;28;20053;-87
2021/06/05 13:14:28;;;;;;;17.90;16.17;;;19.80;99.90;;;;;;5025389;28;20109;-88
2021/06/05 13:17:27;;;;;;;22.15;19.75;;;19.70;99.90;;;;;;5011791;28;20080;-87
2021/06/05 13:20:09;;;;;;;24.40;21.02;;;19.70;99.90;;;;;;5019008;28;20026;-88
2021/06/05 13:22:35;;;;;;;25.48;22.85;;;19.70;99.90;;;;;;5019315;28;20041;-88
2021/06/05 13:33:38;;;;;;;29.90;24.50;;;19.60;99.90;;;;;;5022295;28;20044;-87
2021/06/05 13:59:46;;;;;;;28.52;24.42;;;19.30;99.90;;;;;;4848851;29;20053;-85
2021/06/05 14:02:12;;;;;;;32.78;26.35;;;19.50;99.90;;;;;;4846734;29;20317;-85
2021/06/05 14:04:37;;;;;;;31.30;27.30;;;19.30;99.90;;;;;;4830825;29;20068;-86
2021/06/05 14:07:03;;;;;;;30.85;27.00;;;19.90;99.90;;;;;;4994042;28;20050;-86
2021/06/05 14:09:29;;;;;;;29.98;26.02;;;19.70;99.90;;;;;;5016031;28;20030;-86
2021/06/05 14:11:55;;;;;;;31.13;26.25;;;19.70;99.90;;;;;;5027614;28;20097;-87
2021/06/05 14:14:21;;;;;;;33.72;27.50;;;19.90;99.90;;;;;;5014185;28;20079;-85
2021/06/05 14:16:47;;;;;;;34.53;27.55;;;19.70;99.90;;;;;;5013201;28;20065;-86
2021/06/05 14:19:12;;;;;;;37.72;29.73;;;19.70;99.90;;;;;;5032553;28;20053;-86
2021/06/05 14:21:38;;;;;;;34.75;29.73;;;19.70;99.90;;;;;;5025276;28;20115;-87
2021/06/05 14:24:05;;;;;;;39.03;30.80;;;19.50;99.90;;;;;;5026541;28;21903;-86
2021/06/05 14:26:31;;;;;;;37.90;30.38;;;19.60;99.90;;;;;;5027276;28;20776;-87
2021/06/05 14:28:57;;;;;;;33.25;28.35;;;20.10;99.90;;;;;;5007756;28;20033;-87
2021/06/05 14:31:23;;;;;;;35.45;28.45;;;19.60;99.90;;;;;;5026781;28;20037;-86
2021/06/05 14:33:53;;;;;;;34.28;28.27;;;19.70;99.90;;;;;;5023283;28;20056;-86
2021/06/05 14:36:20;;;;;;;30.10;26.88;;;19.60;99.90;;;;;;5013194;28;20053;-86
2021/06/05 14:38:46;;;;;;;30.92;27.10;;;19.50;99.90;;;;;;5027368;28;20036;-87
2021/06/05 14:41:12;;;;;;;33.75;29.33;;;19.40;99.90;;;;;;5026419;28;20038;-87
2021/06/05 14:43:41;;;;;;;32.10;28.65;;;19.40;99.90;;;;;;5017421;28;20041;-87
2021/06/05 14:46:07;;;;;;;34.25;30.77;;;19.40;99.90;;;;;;5009606;28;20044;-87
2021/06/05 14:48:33;;;;;;;35.45;31.80;;;19.70;99.90;;;;;;5016252;28;20049;-88
2021/06/05 14:51:00;;;;;;;36.17;31.98;;;19.20;99.90;;;;;;5024236;28;20034;-87
2021/06/05 14:53:29;;;;;;;33.45;30.08;;;19.10;99.90;;;;;;5033118;28;20402;-88
2021/06/05 14:55:55;;;;;;;37.65;33.70;;;19.50;99.90;;;;;;5017921;28;20088;-88
2021/06/05 14:58:22;;;;;;;44.47;38.90;;;19.20;99.90;;;;;;5027704;28;20033;-87
2021/06/05 15:00:49;;;;;;;44.72;39.70;;;19.20;99.90;;;;;;5011217;28;20041;-87
2021/06/05 15:03:16;;;;;;;50.58;43.38;;;19.20;99.90;;;;;;5037273;28;20049;-87
2021/06/05 15:05:44;;;;;;;47.75;41.58;;;19.00;99.90;;;;;;5036405;28;20391;-86
2021/06/05 15:08:10;;;;;;;51.65;44.08;;;19.10;99.90;;;;;;5018032;28;20041;-86
2021/06/05 15:10:36;;;;;;;61.60;47.53;;;19.00;99.90;;;;;;5016794;28;20503;-86
2021/06/05 15:13:03;;;;;;;55.13;45.97;;;19.00;99.90;;;;;;5031160;28;20131;-87
2021/06/05 15:15:33;;;;;;;58.78;46.95;;;19.00;99.90;;;;;;5038816;28;20059;-86
2021/06/05 15:17:59;;;;;;;52.72;44.75;;;19.00;99.90;;;;;;5009891;28;20088;-86
2021/06/05 15:20:26;;;;;;;52.42;45.85;;;19.00;99.90;;;;;;5016909;28;20045;-87
2021/06/05 15:22:52;;;;;;;58.95;45.65;;;19.00;99.90;;;;;;5010266;28;20423;-87
2021/06/05 15:25:26;;;;;;;56.92;46.40;;;19.00;99.90;;;;;;5030055;28;20041;-87
2021/06/05 15:27:52;;;;;;;57.55;48.75;;;18.90;99.90;;;;;;5018173;28;20038;-87
2021/06/05 15:30:26;;;;;;;59.22;49.67;;;19.20;99.90;;;;;;5034700;28;20033;-87
2021/06/05 15:32:59;;;;;;;57.28;48.83;;;18.90;99.90;;;;;;5024261;28;20050;-86
2021/06/05 15:35:29;;;;;;;60.35;50.63;;;19.00;99.90;;;;;;5026624;28;20037;-86
2021/06/05 15:37:55;;;;;;;64.50;49.50;;;18.90;99.90;;;;;;5025100;28;20075;-86
2021/06/05 15:40:23;;;;;;;60.38;50.15;;;19.20;99.90;;;;;;5038904;28;20045;-87
2021/06/05 15:42:49;;;;;;;68.13;54.25;;;18.80;99.90;;;;;;5036069;28;20103;-86
2021/06/05 15:45:19;;;;;;;58.00;48.15;;;19.10;99.90;;;;;;5019728;28;20037;-87
2021/06/05 15:47:45;;;;;;;59.47;50.10;;;18.80;99.90;;;;;;5036869;28;20069;-88
2021/06/05 15:50:14;;;;;;;61.67;49.15;;;18.80;99.90;;;;;;5034056;28;20040;-84
2021/06/05 15:52:40;;;;;;;59.95;48.60;;;18.80;99.90;;;;;;5028800;28;20092;-87
2021/06/05 15:55:07;;;;;;;60.03;48.58;;;18.80;99.90;;;;;;5018956;28;20117;-87
2021/06/05 15:57:33;;;;;;;57.65;46.33;;;18.70;99.90;;;;;;5025863;28;20037;-87
2021/06/05 15:59:59;;;;;;;62.15;47.75;;;19.20;99.90;;;;;;5034238;28;20037;-89
2021/06/05 16:02:25;;;;;;;62.70;49.58;;;19.00;99.90;;;;;;5016415;28;20598;-89
2021/06/05 16:04:54;;;;;;;58.10;45.65;;;19.00;99.90;;;;;;5028957;28;20049;-87
2021/06/05 16:07:19;;;;;;;53.30;45.75;;;18.80;99.90;;;;;;5031693;28;20041;-88
2021/06/05 16:09:45;;;;;;;58.33;43.42;;;18.80;99.90;;;;;;4998216;28;20045;-85
2021/06/05 17:19:11;;;;;;;52.88;41.30;;;18.30;99.90;;;;;;4918111;28;20097;-87
2021/06/05 17:21:37;;;;;;;45.20;39.97;;;18.30;99.90;;;;;;4978479;28;20061;-85
2021/06/05 17:24:07;;;;;;;45.10;40.20;;;18.50;99.90;;;;;;5009762;28;20068;-87
2021/06/05 17:26:34;;;;;;;45.47;40.58;;;18.50;99.90;;;;;;5017874;28;20049;-86
2021/06/05 17:29:00;;;;;;;48.35;43.33;;;18.30;99.90;;;;;;5023202;28;20095;-87
2021/06/05 17:31:28;;;;;;;44.97;40.28;;;18.40;99.90;;;;;;5020822;28;20037;-87
2021/06/05 17:33:56;;;;;;;45.95;41.22;;;18.30;99.90;;;;;;5010222;28;20470;-87
2021/06/05 17:36:23;;;;;;;46.28;41.45;;;18.30;99.90;;;;;;5003729;28;20133;-88
2021/06/05 17:38:48;;;;;;;44.85;40.08;;;18.40;99.90;;;;;;5027908;28;20039;-84
2021/06/05 17:41:17;;;;;;;45.88;40.95;;;18.90;99.90;;;;;;5024334;28;20041;-87
2021/06/05 17:43:43;;;;;;;45.55;40.78;;;18.80;99.90;;;;;;5009184;28;20065;-88
2021/06/05 17:46:11;;;;;;;49.65;44.33;;;18.50;99.90;;;;;;5020186;28;20030;-86
2021/06/05 17:48:38;;;;;;;46.08;41.10;;;18.60;99.90;;;;;;5027306;28;20044;-86
2021/06/05 17:51:13;;;;;;;44.70;40.05;;;18.60;99.90;;;;;;5007145;28;20667;-85
2021/06/05 17:53:44;;;;;;;45.20;40.38;;;18.60;99.90;;;;;;5019805;28;20396;-85
2021/06/05 17:56:10;;;;;;;46.20;41.53;;;18.60;99.90;;;;;;5023339;28;20034;-86
2021/06/05 17:58:37;;;;;;;43.00;38.50;;;18.60;99.90;;;;;;5012098;28;20067;-86
2021/06/05 18:01:08;;;;;;;42.72;38.33;;;18.70;99.90;;;;;;5012730;28;20030;-85